Portada
METAR-TAF:

METAR-TAF

Aeropuertos :

Aeropuerto Internacional de Yap

Yap, Micronesia

latitud: 09-29N, longitud: 138-05E, altitud: 28 m

Observación

El informe se hizo hace 36 minutos, a las 13:50 UTC
Viento 7 kt del norte-noreste
Temperatura 27°C
Humedad 79%
Presión 1011 hPa
Visibilidad: 19.3 km
Escasas nubes a una altura de 1600 ft
Cielo nuboso a una altura de 30000 ft

METAR: PTYA 171350Z 03007KT 12SM FEW016 BKN300 27/23 A2986 RMK SLP113 T02690232

Hora: 00:26 (14:26 UTC)

Pronóstico

El informe se hizo hace 2 horas y 57 minutos, a las 11:29 UTC
Pronóstico válido del 17 a las 12 UTC al 18 a las 12 UTC
Viento 11 kt del noreste
Visibilidad: 10 km
Nubes dispersas a una altura de 1600 ft
Cielo nuboso a una altura de 5000 ft
chaparrones en las proximidades

TAF: PTYA 171129Z 1712/1812 04011KT P6SM VCSH SCT016 BKN050

Observaciones y pronósticos meteorológicos de más de 4000 aeropuertos (mensajes METAR y TAF).

Los puntos amarillos y rojos representan las estaciones disponibles.

Ponga el ratón en el punto deseado para ver el nombre de la estación.

Haga clic para ver las observaciones y los pronósticos meteorológicos.

Para cambiar el mapa : haga clic en los botones verdes con una cruz de color negro para hacer un zoom, en el botón verde con un guión para alejar o en las flechas verdes para mapas adyacentes.


METAR-TAF: